Time;durP1;ratioP1;P1;durP2;ratioP2;P2;SDS_P1;SDS_P2;PMS_P1;PMS_P2;Temp;Humidity;BMP_temperature;BMP_pressure;BME280_temperature;BME280_humidity;BME280_pressure;Samples;Min_cycle;Max_cycle;Signal;HPM_P1;HPM_P2
2024/04/05 00:01:46;;;;;;;1.90;1.52;;;;;;;-1.45;61.03;99264.16;5113113;28;20043;-64
2024/04/05 00:04:11;;;;;;;1.42;1.33;;;;;;;-1.37;61.58;99262.38;5112845;28;20397;-64
2024/04/05 00:06:37;;;;;;;1.75;1.58;;;;;;;-1.23;61.12;99265.28;5113025;28;20039;-64
2024/04/05 00:09:06;;;;;;;2.03;1.20;;;;;;;-1.17;60.33;99273.25;5094468;28;20042;-64
2024/04/05 00:11:32;;;;;;;1.48;1.38;;;;;;;-1.21;60.08;99269.34;5112844;28;20043;-64
2024/04/05 00:13:58;;;;;;;2.92;1.73;;;;;;;-1.28;60.68;99276.19;5112573;28;20039;-64
2024/04/05 00:16:24;;;;;;;1.70;1.40;;;;;;;-1.28;60.31;99272.78;5094377;28;20047;-64
2024/04/05 00:18:50;;;;;;;1.60;1.50;;;;;;;-1.28;60.56;99277.97;5112281;28;20035;-63
2024/04/05 00:21:16;;;;;;;1.67;1.27;;;;;;;-1.26;60.46;99274.22;5112698;28;20040;-63
2024/04/05 00:23:42;;;;;;;2.17;1.50;;;;;;;-1.37;60.64;99270.16;5112600;28;20031;-63
2024/04/05 00:26:09;;;;;;;2.25;1.60;;;;;;;-1.33;60.56;99275.03;5094295;28;20381;-64
2024/04/05 00:28:38;;;;;;;1.67;1.40;;;;;;;-1.39;60.82;99284.31;5094908;28;20040;-65
2024/04/05 00:31:08;;;;;;;1.48;1.30;;;;;;;-1.46;61.07;99278.94;5077326;28;20146;-64
2024/04/05 00:33:35;;;;;;;1.83;1.20;;;;;;;-1.44;60.62;99294.38;5112782;28;20040;-64
2024/04/05 00:36:02;;;;;;;1.40;1.30;;;;;;;-1.37;60.36;99287.56;5112338;28;20130;-65
2024/04/05 00:38:28;;;;;;;1.52;1.42;;;;;;;-1.47;60.87;99284.28;5100618;28;20085;-63
2024/04/05 00:40:54;;;;;;;1.58;1.48;;;;;;;-1.57;60.94;99281.06;5103805;28;20031;-65
2024/04/05 00:43:20;;;;;;;1.63;1.30;;;;;;;-1.71;60.61;99287.69;5100336;28;20032;-64
2024/04/05 00:45:49;;;;;;;1.55;1.45;;;;;;;-1.76;60.84;99290.78;5112302;28;20434;-64
2024/04/05 00:48:19;;;;;;;1.17;1.17;;;;;;;-1.76;60.74;99308.19;5112297;28;20436;-64
2024/04/05 00:50:47;;;;;;;2.97;1.50;;;;;;;-1.79;60.68;99292.88;5094555;28;20081;-64
2024/04/05 00:53:39;;;;;;;1.65;1.40;;;;;;;-1.64;60.29;99294.69;5094280;28;20119;-63
2024/04/05 00:56:05;;;;;;;1.63;1.50;;;;;;;-1.58;60.46;99289.84;5119726;27;20070;-63
2024/04/05 00:58:31;;;;;;;1.55;1.40;;;;;;;-1.57;60.21;99299.25;5074190;28;20040;-64
2024/04/05 01:00:56;;;;;;;1.60;1.50;;;;;;;-1.53;60.33;99295.34;5092240;28;20048;-64
2024/04/05 01:03:22;;;;;;;1.42;1.33;;;;;;;-1.50;60.36;99293.25;5091931;28;20078;-64
2024/04/05 01:05:49;;;;;;;1.80;1.48;;;;;;;-1.51;60.59;99291.63;5074020;28;20044;-63
2024/04/05 01:08:16;;;;;;;1.75;1.60;;;;;;;-1.49;60.23;99305.28;5092037;28;20046;-63
2024/04/05 01:10:42;;;;;;;1.48;1.38;;;;;;;-1.48;59.96;99304.28;5073738;28;20047;-64
2024/04/05 01:13:10;;;;;;;2.42;1.75;;;;;;;-1.47;59.96;99305.94;5100220;28;20047;-65
2024/04/05 01:15:36;;;;;;;1.85;1.30;;;;;;;-1.49;59.84;99305.28;5111852;28;20051;-63
2024/04/05 01:18:05;;;;;;;1.83;1.50;;;;;;;-1.52;60.22;99310.78;5111971;28;20043;-64
2024/04/05 01:20:32;;;;;;;1.67;1.50;;;;;;;-1.49;60.26;99315.66;5076292;28;20715;-63
2024/04/05 01:23:03;;;;;;;1.60;1.50;;;;;;;-1.38;59.92;99312.75;5110020;28;20126;-63
2024/04/05 01:25:29;;;;;;;2.05;1.30;;;;;;;-1.41;60.12;99322.69;5127670;27;20047;-64
2024/04/05 01:27:56;;;;;;;4.28;1.70;;;;;;;-1.45;60.13;99313.56;5093352;28;20071;-65
2024/04/05 01:30:25;;;;;;;4.00;1.60;;;;;;;-1.44;60.12;99309.97;5076762;28;20491;-63
2024/04/05 01:32:56;;;;;;;2.35;1.58;;;;;;;-1.42;60.36;99321.03;5111838;28;20040;-64
2024/04/05 01:35:21;;;;;;;;;;;;;;;-1.45;60.07;99326.56;5094026;28;20055;-65
2024/04/05 01:37:47;;;;;;;2.13;1.40;;;;;;;-1.47;59.85;99323.28;5111795;28;20395;-63
2024/04/05 01:40:13;;;;;;;1.80;1.35;;;;;;;-1.51;60.27;99316.81;5110863;28;20066;-65
2024/04/05 01:42:39;;;;;;;2.17;1.48;;;;;;;-1.52;60.14;99320.38;5112072;28;20420;-63
2024/04/05 01:45:05;;;;;;;2.25;1.33;;;;;;;-1.52;60.35;99323.78;5093345;28;20047;-64
2024/04/05 01:47:31;;;;;;;1.95;1.33;;;;;;;-1.50;60.49;99327.06;5111735;28;20039;-63
2024/04/05 01:49:57;;;;;;;2.20;1.80;;;;;;;-1.53;60.53;99336.94;5111504;28;20142;-63
2024/04/05 01:52:23;;;;;;;1.60;1.40;;;;;;;-1.48;60.37;99324.28;5111823;28;20047;-64
2024/04/05 01:54:49;;;;;;;1.33;1.23;;;;;;;-1.44;60.17;99325.56;5127355;28;20390;-63
2024/04/05 01:57:15;;;;;;;2.25;1.63;;;;;;;-1.37;60.16;99327.38;5092662;28;20043;-63
2024/04/05 01:59:48;;;;;;;3.25;1.38;;;;;;;-1.25;59.62;99320.06;5079862;28;20128;-65
2024/04/05 02:02:14;;;;;;;2.05;1.50;;;;;;;-1.37;59.75;99340.38;5097849;28;20093;-63
2024/04/05 02:04:40;;;;;;;1.90;1.80;;;;;;;-1.40;59.43;99347.69;5097155;28;20040;-65
2024/04/05 02:07:06;;;;;;;2.50;1.73;;;;;;;-1.38;59.36;99337.94;5115468;28;20063;-65
2024/04/05 02:09:32;;;;;;;2.92;1.67;;;;;;;-1.42;59.65;99334.84;5115757;28;20031;-65
2024/04/05 02:11:59;;;;;;;1.50;1.40;;;;;;;-1.48;59.77;99345.88;5096513;28;20055;-65
2024/04/05 02:14:25;;;;;;;1.65;1.55;;;;;;;-1.44;59.71;99348.97;5109612;28;20421;-63
2024/04/05 02:16:56;;;;;;;3.45;1.88;;;;;;;-1.46;60.11;99356.94;5116232;28;20097;-64
2024/04/05 02:19:23;;;;;;;2.55;1.60;;;;;;;-1.39;59.96;99350.13;5097317;28;20039;-64
2024/04/05 02:21:48;;;;;;;3.33;1.70;;;;;;;-1.45;59.81;99362.94;5115637;28;20043;-63
2024/04/05 02:24:15;;;;;;;4.57;1.33;;;;;;;-1.44;59.68;99359.38;5114122;28;20047;-64
2024/04/05 02:26:41;;;;;;;1.67;1.50;;;;;;;-1.44;59.79;99369.78;5114470;28;20052;-66
2024/04/05 02:29:07;;;;;;;1.95;1.63;;;;;;;-1.49;59.02;99364.25;5115620;28;20130;-64
2024/04/05 02:31:33;;;;;;;2.22;1.63;;;;;;;-1.57;59.03;99365.03;5115855;28;20074;-63
2024/04/05 02:33:58;;;;;;;1.60;1.50;;;;;;;-1.74;59.69;99374.59;5115433;28;20040;-63
2024/04/05 02:36:24;;;;;;;1.85;1.48;;;;;;;-1.88;59.72;99370.81;5115304;28;20071;-64
2024/04/05 02:38:50;;;;;;;3.05;1.80;;;;;;;-1.93;60.17;99370.47;5114117;28;20404;-64
2024/04/05 02:41:16;;;;;;;1.70;1.60;;;;;;;-1.85;59.68;99375.72;5082677;28;20044;-63
2024/04/05 02:43:42;;;;;;;1.50;1.40;;;;;;;-1.88;59.86;99380.41;5097136;28;20036;-65
2024/04/05 02:46:08;;;;;;;1.40;1.30;;;;;;;-1.86;59.80;99378.44;5096958;28;20127;-64
2024/04/05 02:48:34;;;;;;;1.40;1.30;;;;;;;-1.92;60.19;99382.47;5113517;28;20524;-65
2024/04/05 02:51:00;;;;;;;1.88;1.30;;;;;;;-1.98;59.87;99380.50;5096438;28;20062;-64
2024/04/05 02:53:26;;;;;;;2.50;1.52;;;;;;;-1.95;59.82;99393.19;5114856;28;20038;-64
2024/04/05 02:55:52;;;;;;;3.13;1.40;;;;;;;-1.88;59.85;99388.22;5096816;28;20070;-64
2024/04/05 02:58:18;;;;;;;1.70;1.50;;;;;;;-1.88;59.94;99391.63;5114858;28;20050;-64
2024/04/05 03:00:45;;;;;;;2.15;1.55;;;;;;;-1.86;59.84;99392.25;5079573;28;20043;-64
2024/04/05 03:03:11;;;;;;;1.83;1.50;;;;;;;-1.87;59.81;99389.81;5114872;28;20045;-64
2024/04/05 03:05:37;;;;;;;1.70;1.48;;;;;;;-1.80;59.67;99395.19;5096448;28;20080;-64
2024/04/05 03:08:04;;;;;;;2.78;1.83;;;;;;;-1.85;59.70;99401.69;5114741;28;20042;-64
2024/04/05 03:10:30;;;;;;;2.78;1.45;;;;;;;-1.88;59.85;99399.41;5114028;28;20040;-64
2024/04/05 03:12:56;;;;;;;1.67;1.30;;;;;;;-1.92;59.90;99399.84;5114482;28;20063;-65
2024/04/05 03:15:22;;;;;;;1.92;1.58;;;;;;;-1.92;60.29;99390.28;5114483;28;20039;-64
2024/04/05 03:17:48;;;;;;;1.60;1.50;;;;;;;-1.83;60.25;99397.13;5096191;28;20411;-63
2024/04/05 03:20:14;;;;;;;1.38;1.27;;;;;;;-1.72;60.01;99400.44;5114283;28;20123;-64
2024/04/05 03:22:40;;;;;;;1.90;1.40;;;;;;;-1.68;59.82;99406.94;5095828;28;20043;-66
2024/04/05 03:25:08;;;;;;;1.70;1.60;;;;;;;-1.72;59.53;99416.81;5114132;28;20422;-64
2024/04/05 03:27:34;;;;;;;1.73;1.63;;;;;;;-1.78;60.11;99409.66;5113990;28;20572;-65
2024/04/05 03:30:00;;;;;;;1.80;1.70;;;;;;;-1.79;59.98;99417.59;5114221;28;22132;-64
2024/04/05 03:32:29;;;;;;;1.85;1.65;;;;;;;-1.80;60.58;99414.19;5114091;28;20050;-65
2024/04/05 03:34:55;;;;;;;3.28;2.00;;;;;;;-1.72;60.39;99418.63;5129937;27;20035;-63
2024/04/05 03:37:22;;;;;;;3.88;1.70;;;;;;;-1.67;60.25;99421.56;5095208;28;20077;-64
2024/04/05 03:39:54;;;;;;;2.35;1.75;;;;;;;-1.54;60.35;99426.31;5113897;28;20039;-64
2024/04/05 03:42:20;;;;;;;2.42;1.70;;;;;;;-1.44;59.95;99420.00;5113810;28;20097;-65
2024/04/05 03:44:48;;;;;;;1.83;1.70;;;;;;;-1.46;59.90;99421.13;5113770;28;20405;-65
2024/04/05 03:47:14;;;;;;;1.90;1.50;;;;;;;-1.45;59.00;99428.75;5113912;28;20047;-65
2024/04/05 03:49:41;;;;;;;2.10;1.60;;;;;;;-1.60;59.18;99435.53;5113375;28;20140;-64
2024/04/05 03:52:07;;;;;;;1.58;1.40;;;;;;;-1.61;59.69;99432.13;5113652;28;20075;-64
2024/04/05 03:54:34;;;;;;;1.75;1.50;;;;;;;-1.53;58.96;99440.91;5095199;28;20040;-64
2024/04/05 03:57:00;;;;;;;1.27;1.17;;;;;;;-1.60;59.06;99431.16;5114048;28;20451;-64
2024/04/05 03:59:26;;;;;;;1.70;1.50;;;;;;;-1.66;59.50;99437.00;5095353;28;20027;-63
2024/04/05 04:01:52;;;;;;;3.75;1.50;;;;;;;-1.56;59.26;99433.44;5113686;28;20642;-63
2024/04/05 04:04:19;;;;;;;1.95;1.70;;;;;;;-1.63;59.58;99444.47;5094431;28;20516;-63
2024/04/05 04:06:44;;;;;;;2.25;1.40;;;;;;;-1.69;59.12;99437.31;5112128;28;20046;-62
2024/04/05 04:09:14;;;;;;;3.08;1.60;;;;;;;-1.55;58.95;99437.69;5113398;28;20044;-64
2024/04/05 04:11:42;;;;;;;1.48;1.38;;;;;;;-1.50;58.97;99446.66;5113653;28;20079;-64
2024/04/05 04:14:09;;;;;;;2.03;1.60;;;;;;;-1.56;59.13;99451.63;5094826;28;20044;-64
2024/04/05 04:16:35;;;;;;;1.70;1.60;;;;;;;-1.62;59.41;99469.50;5111866;28;20051;-63
2024/04/05 04:19:01;;;;;;;2.05;1.60;;;;;;;-1.72;59.20;99462.78;5113317;28;20044;-64
2024/04/05 04:21:27;;;;;;;2.10;1.50;;;;;;;-1.70;59.64;99455.66;5077366;28;20054;-64
2024/04/05 04:23:53;;;;;;;2.20;1.50;;;;;;;-1.68;59.30;99456.31;5112757;28;20050;-63
2024/04/05 04:26:23;;;;;;;1.27;1.17;;;;;;;-1.67;59.36;99460.56;5094891;28;20061;-64
2024/04/05 04:28:49;;;;;;;2.35;1.67;;;;;;;-1.70;59.22;99468.66;5094638;28;20039;-64
2024/04/05 04:31:17;;;;;;;3.60;1.40;;;;;;;-1.67;59.46;99456.16;5111365;28;20067;-65
2024/04/05 04:33:45;;;;;;;1.60;1.50;;;;;;;-1.60;59.16;99482.34;5094484;28;20511;-64
2024/04/05 04:36:11;;;;;;;1.50;1.40;;;;;;;-1.72;59.75;99468.81;5113109;28;20074;-64
2024/04/05 04:38:37;;;;;;;1.50;1.40;;;;;;;-1.66;59.49;99467.38;5111353;28;20049;-63
2024/04/05 04:41:03;;;;;;;3.03;1.50;;;;;;;-1.62;59.44;99469.50;5073970;28;20076;-64
2024/04/05 04:43:29;;;;;;;1.55;1.42;;;;;;;-1.67;59.06;99476.16;5107895;28;20040;-63
2024/04/05 04:45:55;;;;;;;1.13;1.10;;;;;;;-1.76;59.09;99500.47;5092439;28;20135;-63
2024/04/05 04:48:20;;;;;;;5.70;1.80;;;;;;;-1.68;59.42;99492.69;5073768;28;20087;-63
2024/04/05 04:50:46;;;;;;;3.28;1.30;;;;;;;-1.73;59.01;99493.19;5092167;28;20143;-65
2024/04/05 04:53:12;;;;;;;1.30;1.20;;;;;;;-1.55;58.24;99493.09;5074239;28;20401;-65
2024/04/05 04:55:41;;;;;;;1.40;1.30;;;;;;;-1.49;58.11;99491.66;5091742;28;20130;-61
2024/04/05 04:58:07;;;;;;;1.48;1.38;;;;;;;-1.38;58.09;99488.78;5092244;28;20058;-63
2024/04/05 05:00:33;;;;;;;2.22;1.10;;;;;;;-1.37;58.18;99486.00;5103281;28;20513;-64
2024/04/05 05:02:59;;;;;;;2.17;1.00;;;;;;;-1.43;58.08;99488.41;5094439;28;20083;-65
2024/04/05 05:05:24;;;;;;;1.55;1.23;;;;;;;-1.49;58.16;99497.66;5112379;28;20047;-67
2024/04/05 05:07:51;;;;;;;1.10;1.00;;;;;;;-1.47;58.10;99502.69;5112300;28;20325;-66
2024/04/05 05:10:17;;;;;;;2.33;0.90;;;;;;;-1.35;57.35;99505.81;5110436;28;20078;-65
2024/04/05 05:12:43;;;;;;;6.90;1.40;;;;;;;-1.42;57.39;99490.84;5093199;28;20489;-66
2024/04/05 05:15:09;;;;;;;1.20;1.10;;;;;;;-1.37;56.95;99514.59;5108739;28;20047;-64
2024/04/05 05:17:35;;;;;;;1.10;1.10;;;;;;;-1.45;56.81;99475.56;5111804;28;20535;-64
2024/04/05 05:20:02;;;;;;;0.85;0.85;;;;;;;-1.16;56.95;99506.38;5076333;28;20044;-65
2024/04/05 05:22:29;;;;;;;1.45;1.20;;;;;;;-1.20;57.03;99518.06;5091025;28;20073;-64
2024/04/05 05:24:55;;;;;;;3.25;1.23;;;;;;;-1.07;56.18;99522.00;5110459;28;20032;-62
2024/04/05 05:27:20;;;;;;;1.45;1.02;;;;;;;-1.11;56.28;99521.50;5111264;28;20447;-64
2024/04/05 05:29:46;;;;;;;0.90;0.90;;;;;;;-1.15;56.56;99522.78;5111399;28;20032;-64
2024/04/05 05:32:12;;;;;;;3.55;1.20;;;;;;;-1.04;56.32;99529.50;5109937;28;20050;-64
2024/04/05 05:34:38;;;;;;;4.72;2.75;;;;;;;-0.98;56.22;99524.47;5118320;27;20057;-62
2024/04/05 05:37:04;;;;;;;2.97;1.13;;;;;;;-0.89;55.93;99532.28;5111572;28;20514;-63
2024/04/05 05:39:30;;;;;;;1.73;1.20;;;;;;;-0.73;55.64;99545.34;5111258;28;20035;-62
2024/04/05 05:41:56;;;;;;;1.23;1.20;;;;;;;-0.61;55.03;99538.03;5052929;28;20046;-64
2024/04/05 05:44:22;;;;;;;1.20;1.10;;;;;;;-0.48;54.46;99536.56;5109078;28;20039;-63
2024/04/05 05:46:50;;;;;;;1.95;1.42;;;;;;;-0.62;54.42;99539.81;5091134;28;20096;-64
2024/04/05 05:49:15;;;;;;;1.55;1.10;;;;;;;-0.42;54.87;99550.72;5070702;28;20517;-63
2024/04/05 05:51:41;;;;;;;1.08;0.98;;;;;;;-0.35;54.03;99543.09;5089542;28;20047;-65
2024/04/05 05:54:08;;;;;;;1.17;1.08;;;;;;;-0.46;54.41;99562.44;5089266;28;20119;-64
2024/04/05 05:56:35;;;;;;;1.27;1.20;;;;;;;-0.49;54.37;99547.97;5086977;28;20322;-64
2024/04/05 05:59:01;;;;;;;0.90;0.90;;;;;;;-0.49;54.47;99558.38;5070944;28;20070;-64
2024/04/05 06:01:27;;;;;;;1.10;1.10;;;;;;;-0.42;54.20;99548.13;5076641;28;20044;-63
2024/04/05 06:03:52;;;;;;;1.20;1.10;;;;;;;-0.41;54.48;99549.75;5084862;28;20080;-62
2024/04/05 06:06:18;;;;;;;1.17;1.08;;;;;;;-0.26;54.08;99558.56;5087487;28;20043;-63
2024/04/05 06:08:44;;;;;;;1.55;1.45;;;;;;;-0.20;53.76;99562.31;5080994;28;20040;-64
2024/04/05 06:11:11;;;;;;;1.10;1.10;;;;;;;-0.14;53.78;99566.03;5081307;28;20123;-63
2024/04/05 06:13:37;;;;;;;1.63;1.27;;;;;;;-0.14;53.67;99563.44;5076125;28;20054;-63
2024/04/05 06:16:04;;;;;;;1.88;1.50;;;;;;;-0.07;53.68;99561.78;5079397;28;20416;-67
2024/04/05 06:18:30;;;;;;;1.95;1.30;;;;;;;0.28;52.92;99567.63;5069254;28;20040;-62
2024/04/05 06:20:56;;;;;;;1.25;1.13;;;;;;;0.34;52.47;99586.00;5063166;28;20036;-63
2024/04/05 06:23:23;;;;;;;2.22;1.40;;;;;;;0.22;52.38;99569.91;5061567;28;20037;-63
2024/04/05 06:26:00;;;;;;;2.75;1.58;;;;;;;0.18;52.65;99575.63;5079380;28;20044;-63
2024/04/05 06:28:26;;;;;;;2.22;1.65;;;;;;;0.22;52.91;99579.50;5079025;28;20040;-63
2024/04/05 06:30:53;;;;;;;2.15;1.17;;;;;;;0.13;53.18;99581.31;5060702;28;20076;-64
2024/04/05 06:33:19;;;;;;;2.42;1.30;;;;;;;0.32;52.94;99574.09;5060495;28;20041;-63
2024/04/05 06:35:46;;;;;;;1.63;1.10;;;;;;;0.30;52.62;99591.72;5057087;28;20052;-63
2024/04/05 06:38:12;;;;;;;2.58;1.60;;;;;;;0.33;53.24;99589.59;5075959;28;20024;-64
2024/04/05 06:40:39;;;;;;;1.50;1.40;;;;;;;0.44;52.50;99596.25;5076864;28;20511;-64
2024/04/05 06:43:10;;;;;;;4.93;1.23;;;;;;;0.08;52.78;99586.19;5077682;28;20068;-63
2024/04/05 06:45:36;;;;;;;1.20;1.10;;;;;;;0.30;52.81;99589.94;5065971;28;20123;-61
2024/04/05 06:48:02;;;;;;;1.60;1.20;;;;;;;0.38;52.34;99586.47;5084305;28;20036;-62
2024/04/05 06:50:31;;;;;;;6.63;1.27;;;;;;;0.60;52.40;99588.38;5095584;28;20108;-63
2024/04/05 06:53:00;;;;;;;1.20;1.05;;;;;;;0.65;51.62;99572.25;5096729;28;20104;-63
2024/04/05 06:55:26;;;;;;;3.25;1.30;;;;;;;0.56;51.81;99589.72;5078869;28;20039;-63
2024/04/05 06:57:53;;;;;;;1.83;1.45;;;;;;;0.45;51.90;99593.47;5070751;28;20059;-64
2024/04/05 07:00:22;;;;;;;2.88;1.30;;;;;;;0.56;51.72;99615.81;5095354;28;20137;-63
2024/04/05 07:02:48;;;;;;;2.13;1.50;;;;;;;0.60;50.98;99611.88;5076297;28;20032;-62
2024/04/05 07:05:14;;;;;;;1.48;1.38;;;;;;;0.71;50.38;99607.25;5113380;28;20492;-61
2024/04/05 07:07:40;;;;;;;1.55;1.42;;;;;;;0.73;50.28;99607.91;5078106;28;20058;-62
2024/04/05 07:10:07;;;;;;;3.35;1.60;;;;;;;0.88;50.21;99601.00;5095105;28;20134;-63
2024/04/05 07:12:33;;;;;;;2.65;1.60;;;;;;;0.94;48.81;99608.16;5112908;28;20039;-62
2024/04/05 07:15:01;;;;;;;3.05;2.58;;;;;;;1.20;49.36;99600.03;5113501;28;20050;-63
2024/04/05 07:17:30;;;;;;;1.60;1.50;;;;;;;1.21;48.74;99593.03;5113487;28;20052;-63
2024/04/05 07:19:56;;;;;;;4.00;2.05;;;;;;;1.55;48.46;99600.50;5086711;28;20032;-64
2024/04/05 07:22:22;;;;;;;4.40;2.30;;;;;;;1.73;48.16;99608.84;5076794;28;20057;-64
2024/04/05 07:24:48;;;;;;;2.08;1.67;;;;;;;1.79;47.80;99596.88;5112905;28;20074;-63
2024/04/05 07:27:14;;;;;;;2.47;1.60;;;;;;;1.89;47.95;99610.53;5113125;28;20046;-64
2024/04/05 07:29:43;;;;;;;4.28;2.10;;;;;;;1.47;47.61;99611.81;5113271;28;20039;-63
2024/04/05 07:32:09;;;;;;;2.60;2.00;;;;;;;1.51;47.40;99594.81;5095787;28;20088;-62
2024/04/05 07:34:36;;;;;;;3.15;1.75;;;;;;;1.66;47.39;99600.09;5077828;28;20044;-61
2024/04/05 07:37:02;;;;;;;2.90;2.10;;;;;;;1.76;47.34;99602.47;5095209;28;20127;-63
2024/04/05 07:39:29;;;;;;;2.17;1.90;;;;;;;1.77;46.23;99602.31;5112825;28;20046;-61
2024/04/05 07:41:55;;;;;;;4.10;2.33;;;;;;;1.72;47.22;99609.84;5095030;28;20036;-62
2024/04/05 07:44:21;;;;;;;2.65;2.08;;;;;;;1.52;47.65;99606.88;5095269;28;20078;-62
2024/04/05 07:46:47;;;;;;;3.25;2.53;;;;;;;1.56;47.72;99616.00;5113366;28;20052;-64
2024/04/05 07:49:14;;;;;;;3.90;2.20;;;;;;;1.62;47.20;99608.44;5095055;28;20085;-62
2024/04/05 07:51:39;;;;;;;6.53;2.38;;;;;;;1.43;48.39;99615.75;5113170;28;20074;-65
2024/04/05 07:54:05;;;;;;;3.35;2.60;;;;;;;1.64;47.77;99609.91;5113172;28;20489;-65
2024/04/05 07:56:31;;;;;;;3.83;2.63;;;;;;;1.90;47.09;99617.38;5112865;28;20047;-65
2024/04/05 07:58:57;;;;;;;4.47;2.47;;;;;;;1.86;47.15;99623.16;5128623;27;20435;-66
2024/04/05 08:01:23;;;;;;;3.38;2.80;;;;;;;1.71;47.44;99607.41;5077649;28;20048;-63
2024/04/05 08:03:49;;;;;;;6.03;2.83;;;;;;;1.82;47.16;99612.22;5078293;28;20039;-64
2024/04/05 08:06:15;;;;;;;3.63;2.92;;;;;;;1.71;47.30;99617.88;5113280;28;20036;-63
2024/04/05 08:08:41;;;;;;;3.08;2.17;;;;;;;1.84;47.35;99615.47;5093988;28;20036;-64
2024/04/05 08:11:06;;;;;;;4.25;2.38;;;;;;;1.78;46.74;99611.75;5112812;28;20055;-64
2024/04/05 08:13:32;;;;;;;4.85;2.83;;;;;;;1.79;46.78;99609.94;5094266;28;20084;-64
2024/04/05 08:15:58;;;;;;;3.85;2.90;;;;;;;1.76;46.84;99624.19;5128832;27;20031;-64
2024/04/05 08:18:24;;;;;;;3.60;2.63;;;;;;;1.77;47.09;99612.75;5094038;28;20031;-64
2024/04/05 08:20:50;;;;;;;5.40;2.83;;;;;;;1.89;47.30;99615.78;5112175;28;20039;-64
2024/04/05 08:23:16;;;;;;;5.85;2.80;;;;;;;1.87;46.86;99607.28;5079636;28;20062;-65
2024/04/05 08:25:42;;;;;;;5.45;2.95;;;;;;;1.87;47.51;99615.13;5077534;28;20081;-64
2024/04/05 08:28:08;;;;;;;4.78;2.95;;;;;;;2.08;46.64;99598.78;5093513;28;20416;-62
2024/04/05 08:30:36;;;;;;;3.88;3.05;;;;;;;2.27;46.57;99593.03;5077785;28;20051;-64
2024/04/05 08:33:03;;;;;;;4.22;3.05;;;;;;;2.42;46.12;99593.06;5093493;28;20039;-65
2024/04/05 08:35:30;;;;;;;4.32;2.95;;;;;;;2.40;46.41;99596.84;5076782;28;20541;-61
2024/04/05 08:38:02;;;;;;;6.35;3.25;;;;;;;2.16;47.38;99596.09;5091556;28;20354;-63
2024/04/05 08:40:28;;;;;;;3.75;2.88;;;;;;;2.25;46.95;99602.06;5112058;28;20043;-63
2024/04/05 08:42:59;;;;;;;4.80;3.72;;;;;;;2.51;46.70;99593.78;5111915;28;20126;-64
2024/04/05 08:45:29;;;;;;;5.32;3.85;;;;;;;2.80;45.83;99590.34;5094443;28;20105;-64
2024/04/05 08:47:58;;;;;;;4.50;3.40;;;;;;;2.64;45.70;99608.84;5093496;28;20157;-64
2024/04/05 08:50:24;;;;;;;5.75;3.90;;;;;;;2.57;46.19;99598.31;5112321;28;20051;-65
2024/04/05 08:52:50;;;;;;;5.32;3.53;;;;;;;2.44;46.24;99593.69;5073241;28;20036;-63
2024/04/05 08:55:19;;;;;;;9.75;3.78;;;;;;;2.72;45.79;99593.06;5091748;28;20054;-64
2024/04/05 08:57:46;;;;;;;6.15;3.70;;;;;;;2.31;46.70;99601.34;5066765;28;20050;-62
2024/04/05 09:00:17;;;;;;;9.13;4.28;;;;;;;2.04;46.94;99590.47;5074597;28;20511;-63
2024/04/05 09:02:43;;;;;;;6.65;4.07;;;;;;;1.91;47.62;99581.59;5109532;28;20434;-65
2024/04/05 09:05:09;;;;;;;5.80;3.65;;;;;;;1.50;48.72;99590.56;5091901;28;20056;-64
2024/04/05 09:07:35;;;;;;;8.80;4.10;;;;;;;1.34;48.66;99595.88;5110131;28;20035;-67
2024/04/05 09:10:14;;;;;;;6.07;4.45;;;;;;;1.41;48.98;99588.16;5112210;28;20047;-64
2024/04/05 09:12:51;;;;;;;7.82;4.50;;;;;;;1.49;48.59;99591.53;5093883;28;20110;-65
2024/04/05 09:15:21;;;;;;;5.63;4.13;;;;;;;1.44;48.72;99586.03;5093924;28;20039;-66
2024/04/05 09:17:50;;;;;;;6.45;4.00;;;;;;;1.57;48.37;99588.88;5111641;28;20412;-67
2024/04/05 09:20:24;;;;;;;6.20;4.60;;;;;;;1.64;48.07;99591.59;5093849;28;20565;-65
2024/04/05 09:23:01;;;;;;;9.68;4.13;;;;;;;1.48;48.63;99569.03;5074685;28;20051;-66
2024/04/05 09:25:27;;;;;;;5.68;4.88;;;;;;;1.55;48.71;99592.66;5109428;28;20047;-64
2024/04/05 09:28:08;;;;;;;12.15;4.70;;;;;;;1.52;48.87;99593.00;5108467;28;20040;-67
2024/04/05 09:30:35;;;;;;;8.65;4.88;;;;;;;1.55;48.73;99601.28;5109044;28;20054;-66
2024/04/05 09:33:01;;;;;;;7.80;4.10;;;;;;;1.52;49.56;99598.22;5108377;28;20358;-64
2024/04/05 09:35:33;;;;;;;6.10;4.15;;;;;;;1.56;49.54;99592.50;5108791;28;20039;-63
2024/04/05 09:38:00;;;;;;;10.65;4.47;;;;;;;1.57;49.40;99596.72;5090907;28;20039;-63
2024/04/05 09:40:26;;;;;;;6.07;4.38;;;;;;;1.52;49.43;99585.16;5092629;28;20132;-64
2024/04/05 09:42:53;;;;;;;7.22;4.82;;;;;;;1.41;49.71;99588.16;5092951;28;20090;-64
2024/04/05 09:45:23;;;;;;;5.55;4.20;;;;;;;1.42;49.85;99590.63;5092918;28;20040;-63
2024/04/05 09:47:49;;;;;;;7.32;4.85;;;;;;;1.35;49.34;99579.22;5109612;28;20035;-64
2024/04/05 09:50:17;;;;;;;5.63;4.38;;;;;;;1.25;49.70;99594.31;5111193;28;20035;-63
2024/04/05 09:52:46;;;;;;;7.70;5.20;;;;;;;1.17;49.92;99579.50;5093349;28;20126;-66
2024/04/05 09:55:16;;;;;;;11.40;5.00;;;;;;;1.21;50.15;99587.81;5092409;28;20479;-64
2024/04/05 09:57:45;;;;;;;6.50;5.00;;;;;;;1.28;50.38;99593.97;5091151;28;20032;-63
2024/04/05 10:00:16;;;;;;;10.07;4.90;;;;;;;1.45;49.61;99589.47;5110419;28;20539;-63
2024/04/05 10:02:46;;;;;;;8.57;5.35;;;;;;;1.47;49.34;99590.94;5075515;28;20044;-63
2024/04/05 10:05:30;;;;;;;8.63;5.57;;;;;;;1.60;49.49;99600.78;5109475;28;20079;-63
2024/04/05 10:08:12;;;;;;;8.05;4.75;;;;;;;1.68;48.97;99610.38;5092927;28;20084;-64
2024/04/05 10:10:38;;;;;;;7.30;4.78;;;;;;;1.53;49.40;99608.53;5093236;28;20393;-63
2024/04/05 10:13:15;;;;;;;8.95;5.28;;;;;;;1.43;49.53;99600.06;5110915;28;20039;-64
2024/04/05 10:15:55;;;;;;;7.90;5.57;;;;;;;1.53;48.55;99592.84;5111372;28;20051;-63
2024/04/05 10:18:35;;;;;;;7.60;5.15;;;;;;;1.45;48.41;99598.13;5092778;28;20501;-63
2024/04/05 10:21:03;;;;;;;8.40;5.73;;;;;;;1.49;48.67;99596.75;5115348;28;20082;-63
2024/04/05 10:23:29;;;;;;;11.63;6.00;;;;;;;1.67;47.98;99588.63;5096786;28;20031;-63
2024/04/05 10:25:55;;;;;;;7.53;5.57;;;;;;;1.66;48.21;99589.63;5115493;28;20039;-64
2024/04/05 10:28:21;;;;;;;10.05;5.32;;;;;;;1.48;48.05;99586.50;5096648;28;20390;-63
2024/04/05 10:30:47;;;;;;;7.78;5.03;;;;;;;1.36;47.99;99586.91;5096464;28;20127;-64
2024/04/05 10:33:20;;;;;;;10.00;5.68;;;;;;;1.48;47.57;99589.94;5114394;28;20036;-64
2024/04/05 10:35:46;;;;;;;10.52;7.05;;;;;;;1.52;47.79;99585.16;5130843;27;20048;-64
2024/04/05 10:38:12;;;;;;;13.20;5.53;;;;;;;1.56;48.01;99586.47;5076533;28;20032;-64
2024/04/05 10:40:38;;;;;;;7.78;5.70;;;;;;;1.68;47.68;99589.47;5096607;28;20147;-63
2024/04/05 10:43:11;;;;;;;10.27;5.72;;;;;;;1.79;47.12;99586.44;5096799;28;20408;-63
2024/04/05 10:45:38;;;;;;;7.80;5.88;;;;;;;1.79;46.57;99581.19;5096593;28;20062;-64
2024/04/05 10:48:05;;;;;;;7.65;5.22;;;;;;;1.75;46.90;99585.97;5096456;28;20058;-63
2024/04/05 10:50:38;;;;;;;9.30;5.03;;;;;;;1.76;46.04;99586.78;5096411;28;20048;-63
2024/04/05 10:53:05;;;;;;;9.60;5.97;;;;;;;1.78;45.76;99590.03;5114438;28;20531;-63
2024/04/05 10:55:31;;;;;;;8.50;4.60;;;;;;;1.82;45.72;99583.47;5114532;28;20172;-62
2024/04/05 10:58:01;;;;;;;6.65;4.88;;;;;;;1.77;45.03;99596.25;5096141;28;20453;-63
2024/04/05 11:00:27;;;;;;;6.97;4.88;;;;;;;1.67;45.21;99582.59;5079462;28;20434;-63
2024/04/05 11:02:53;;;;;;;6.40;4.43;;;;;;;1.70;45.14;99582.25;5075724;28;20097;-62
2024/04/05 11:05:20;;;;;;;10.90;5.22;;;;;;;1.73;45.79;99579.28;5094077;28;20047;-63
2024/04/05 11:07:46;;;;;;;11.60;5.82;;;;;;;1.84;45.79;99576.25;5114779;27;20036;-64
2024/04/05 11:10:18;;;;;;;10.63;5.10;;;;;;;1.92;45.95;99583.25;5094056;28;20048;-62
2024/04/05 11:12:46;;;;;;;8.52;5.97;;;;;;;1.96;45.76;99576.66;5089359;28;20043;-62
2024/04/05 11:15:12;;;;;;;9.05;5.57;;;;;;;2.05;45.10;99580.81;5095926;28;20519;-62
2024/04/05 11:17:38;;;;;;;8.10;5.35;;;;;;;2.05;45.08;99575.59;5113854;28;20089;-65
2024/04/05 11:20:09;;;;;;;8.05;4.97;;;;;;;2.06;45.15;99566.78;5114079;28;20047;-63
2024/04/05 11:22:35;;;;;;;7.60;4.95;;;;;;;2.12;44.58;99570.47;5113489;27;20479;-64
2024/04/05 11:25:02;;;;;;;8.57;4.93;;;;;;;2.23;44.56;99570.03;5113972;28;20048;-64
2024/04/05 11:27:30;;;;;;;11.80;5.30;;;;;;;2.36;44.86;99559.78;5113313;28;20168;-64
2024/04/05 11:29:59;;;;;;;7.65;4.68;;;;;;;2.38;44.70;99568.25;5094577;28;20040;-64
2024/04/05 11:32:29;;;;;;;6.97;5.18;;;;;;;2.35;44.21;99565.97;5113402;28;20551;-64
2024/04/05 11:34:56;;;;;;;7.68;5.47;;;;;;;2.46;44.33;99567.34;5113741;28;20126;-65
2024/04/05 11:37:23;;;;;;;8.32;5.40;;;;;;;2.57;44.04;99558.25;5113290;28;20043;-65